createdAt,value
2023-01-09T00:00:45.342Z,2.30
2023-01-09T00:03:12.237Z,2.30
2023-01-09T00:05:39.189Z,2.30
2023-01-09T00:08:06.093Z,2.40
2023-01-09T00:10:33.032Z,2.50
2023-01-09T00:12:59.912Z,2.50
2023-01-09T00:15:26.788Z,2.50
2023-01-09T00:17:53.716Z,2.60
2023-01-09T00:20:20.584Z,2.70
2023-01-09T00:22:47.553Z,2.70
2023-01-09T00:25:14.466Z,2.60
2023-01-09T00:27:41.462Z,2.60
2023-01-09T00:30:08.893Z,2.40
2023-01-09T00:32:35.846Z,2.20
2023-01-09T00:35:02.756Z,2.10
2023-01-09T00:37:30.419Z,2.20
2023-01-09T00:39:57.285Z,2.20
2023-01-09T00:42:25.749Z,2.20
2023-01-09T00:44:54.646Z,2.20
2023-01-09T00:47:25.686Z,2.50
2023-01-09T00:49:53.627Z,2.60
2023-01-09T00:52:21.114Z,2.70
2023-01-09T00:54:48.360Z,2.50
2023-01-09T00:57:15.489Z,2.30
2023-01-09T00:59:42.593Z,2.10
2023-01-09T01:02:10.284Z,1.90
2023-01-09T01:04:55.955Z,1.70
2023-01-09T01:07:38.661Z,1.70
2023-01-09T01:10:21.459Z,1.90
2023-01-09T01:12:49.114Z,2.20
2023-01-09T01:15:16.612Z,2.40
2023-01-09T01:17:43.800Z,2.50
2023-01-09T01:20:13.479Z,2.60
2023-01-09T01:22:42.534Z,2.60
2023-01-09T01:25:10.484Z,2.70
2023-01-09T01:27:37.955Z,2.60
2023-01-09T01:30:05.622Z,2.70
2023-01-09T01:32:32.498Z,2.80
2023-01-09T01:34:59.377Z,2.80
2023-01-09T01:37:27.897Z,2.70
2023-01-09T01:39:54.914Z,2.60
2023-01-09T01:42:21.979Z,2.40
2023-01-09T01:45:04.329Z,2.20
2023-01-09T01:47:35.569Z,2.20
2023-01-09T01:50:04.480Z,2.40
2023-01-09T01:52:32.414Z,2.50
2023-01-09T01:54:59.367Z,2.50
2023-01-09T01:57:26.341Z,2.30
2023-01-09T01:59:55.787Z,2.10
2023-01-09T02:02:25.865Z,2.10
2023-01-09T02:04:53.802Z,2.00
2023-01-09T02:07:20.778Z,1.90
2023-01-09T02:09:47.703Z,2.00
2023-01-09T02:12:32.853Z,2.20
2023-01-09T02:15:04.091Z,2.40
2023-01-09T02:17:37.296Z,2.60
2023-01-09T02:20:13.260Z,2.80
2023-01-09T02:22:43.802Z,2.90
2023-01-09T02:25:16.883Z,3.00
2023-01-09T02:28:02.537Z,3.00
2023-01-09T02:30:38.900Z,2.90
2023-01-09T02:33:11.911Z,2.90
2023-01-09T02:35:52.647Z,3.00
2023-01-09T02:38:19.532Z,3.00
2023-01-09T02:40:50.391Z,3.00
2023-01-09T02:43:17.449Z,2.90
2023-01-09T02:45:44.380Z,2.80
2023-01-09T02:48:11.732Z,2.80
2023-01-09T02:50:57.291Z,2.70
2023-01-09T02:53:27.377Z,2.60
2023-01-09T02:56:06.831Z,2.70
2023-01-09T02:58:46.991Z,2.80
2023-01-09T03:01:16.969Z,3.00
2023-01-09T03:03:50.146Z,2.90
2023-01-09T03:06:37.436Z,2.80
2023-01-09T03:09:12.016Z,2.90
2023-01-09T03:11:41.860Z,2.90
2023-01-09T03:14:12.401Z,3.00
2023-01-09T03:16:39.585Z,3.00
2023-01-09T03:19:08.335Z,3.10
2023-01-09T03:21:35.749Z,3.10
2023-01-09T03:24:03.045Z,3.20
2023-01-09T03:26:31.158Z,3.30
2023-01-09T03:28:58.903Z,3.30
2023-01-09T03:31:25.891Z,2.80
2023-01-09T03:33:53.346Z,2.50
2023-01-09T03:36:21.490Z,2.30
2023-01-09T03:38:48.727Z,2.20
2023-01-09T03:41:15.600Z,2.10
2023-01-09T03:43:42.487Z,2.10
2023-01-09T03:46:09.358Z,2.20
2023-01-09T03:48:36.236Z,2.20
2023-01-09T03:51:03.178Z,2.30
2023-01-09T03:53:30.604Z,2.40
2023-01-09T03:55:57.901Z,2.40
2023-01-09T03:58:25.277Z,2.50
2023-01-09T04:00:52.989Z,2.60
2023-01-09T04:03:20.706Z,2.60
2023-01-09T04:05:48.413Z,2.70
2023-01-09T04:08:15.629Z,2.80
2023-01-09T04:10:46.458Z,2.90
2023-01-09T04:13:13.553Z,3.00
2023-01-09T04:15:40.687Z,3.10
2023-01-09T04:18:07.729Z,3.10
2023-01-09T04:20:35.030Z,3.00
2023-01-09T04:23:02.017Z,3.10
2023-01-09T04:25:28.967Z,3.20
2023-01-09T04:27:55.998Z,3.20
2023-01-09T04:30:22.930Z,3.20
2023-01-09T04:32:49.774Z,3.30
2023-01-09T04:35:16.706Z,3.30
2023-01-09T04:37:43.828Z,3.40
2023-01-09T04:40:12.161Z,3.40
2023-01-09T04:42:39.298Z,3.50
2023-01-09T04:45:06.842Z,3.60
2023-01-09T04:47:34.611Z,3.70
2023-01-09T04:50:01.725Z,3.80
2023-01-09T04:52:28.693Z,3.90
2023-01-09T04:54:55.557Z,4.00
2023-01-09T04:57:22.551Z,4.20
2023-01-09T04:59:49.472Z,4.20
2023-01-09T05:02:18.698Z,4.20
2023-01-09T05:04:45.669Z,4.10
2023-01-09T05:07:12.972Z,4.10
2023-01-09T05:09:41.799Z,4.20
2023-01-09T05:12:09.144Z,4.20
2023-01-09T05:14:36.644Z,4.40
2023-01-09T05:17:04.018Z,4.40
2023-01-09T05:19:34.965Z,4.50
2023-01-09T05:22:02.321Z,4.50
2023-01-09T05:24:29.863Z,4.60
2023-01-09T05:26:57.484Z,4.60
2023-01-09T05:29:25.104Z,4.70
2023-01-09T05:31:53.168Z,4.70
2023-01-09T05:34:21.428Z,4.80
2023-01-09T05:36:49.017Z,4.80
2023-01-09T05:39:17.729Z,4.70
2023-01-09T05:41:44.631Z,4.70
2023-01-09T05:44:11.852Z,4.80
2023-01-09T05:46:39.263Z,4.80
2023-01-09T05:49:06.754Z,4.80
2023-01-09T05:51:35.772Z,4.80
2023-01-09T05:54:04.404Z,4.80
2023-01-09T05:56:31.913Z,4.70
2023-01-09T05:58:59.357Z,4.70
2023-01-09T06:01:26.873Z,4.70
2023-01-09T06:03:54.304Z,4.70
2023-01-09T06:06:25.094Z,4.60
2023-01-09T06:08:53.106Z,4.50
2023-01-09T06:11:23.446Z,4.40
2023-01-09T06:13:50.959Z,4.40
2023-01-09T06:16:18.785Z,4.30
2023-01-09T06:18:46.695Z,4.30
2023-01-09T06:21:14.108Z,4.30
2023-01-09T06:23:41.542Z,4.30
2023-01-09T06:26:09.155Z,4.30
2023-01-09T06:28:36.651Z,4.50
2023-01-09T06:31:04.220Z,4.40
2023-01-09T06:33:32.513Z,4.40
2023-01-09T06:35:59.919Z,4.40
2023-01-09T06:38:27.440Z,4.40
2023-01-09T06:40:54.894Z,4.40
2023-01-09T06:43:22.305Z,4.50
2023-01-09T06:45:49.863Z,4.50
2023-01-09T06:48:17.353Z,4.70
2023-01-09T06:50:46.184Z,4.70
2023-01-09T06:53:13.585Z,4.70
2023-01-09T06:55:41.822Z,4.70
2023-01-09T06:58:09.310Z,4.80
2023-01-09T07:00:36.877Z,4.80
2023-01-09T07:03:07.362Z,4.80
2023-01-09T07:05:38.181Z,4.80
2023-01-09T07:08:07.037Z,4.70
2023-01-09T07:10:34.505Z,4.60
2023-01-09T07:13:02.042Z,4.50
2023-01-09T07:15:32.460Z,4.50
2023-01-09T07:18:00.086Z,4.40
2023-01-09T07:20:27.510Z,4.40
2023-01-09T07:22:54.955Z,4.30
2023-01-09T07:25:22.629Z,4.40
2023-01-09T07:27:50.236Z,4.40
2023-01-09T07:30:17.912Z,4.40
2023-01-09T07:32:45.387Z,4.50
2023-01-09T07:35:12.980Z,4.40
2023-01-09T07:37:40.485Z,4.50
2023-01-09T07:40:08.360Z,4.50
2023-01-09T07:42:35.788Z,4.50
2023-01-09T07:45:03.416Z,4.50
2023-01-09T07:47:30.896Z,4.50
2023-01-09T07:49:58.776Z,4.50
2023-01-09T07:52:26.349Z,4.50
2023-01-09T07:54:55.525Z,4.50
2023-01-09T07:57:22.982Z,4.50
2023-01-09T07:59:50.459Z,4.60
2023-01-09T08:02:18.534Z,4.70
2023-01-09T08:04:46.052Z,4.80
2023-01-09T08:07:13.594Z,4.80
2023-01-09T08:09:41.009Z,4.80
2023-01-09T08:12:08.496Z,4.70
2023-01-09T08:14:36.323Z,4.70
2023-01-09T08:17:03.839Z,4.70
2023-01-09T08:19:32.056Z,4.70
2023-01-09T08:21:59.513Z,4.80
2023-01-09T08:24:26.991Z,5.00
2023-01-09T08:26:54.439Z,5.20
2023-01-09T08:29:27.995Z,5.30
2023-01-09T08:31:55.504Z,5.40
2023-01-09T08:34:23.357Z,5.40
2023-01-09T08:36:51.064Z,5.40
2023-01-09T08:39:21.439Z,5.50
2023-01-09T08:42:07.438Z,5.60
2023-01-09T08:44:53.381Z,5.90
2023-01-09T08:47:24.445Z,6.30
2023-01-09T08:49:51.944Z,6.50
2023-01-09T08:52:19.538Z,6.50
2023-01-09T08:54:46.992Z,6.30
2023-01-09T08:57:16.315Z,6.20
2023-01-09T08:59:43.733Z,6.10
2023-01-09T09:02:11.035Z,5.90
2023-01-09T09:04:38.072Z,5.90
2023-01-09T09:07:05.751Z,5.70
2023-01-09T09:09:33.512Z,5.70
2023-01-09T09:12:00.952Z,5.60
2023-01-09T09:14:47.514Z,5.60
2023-01-09T09:17:15.106Z,5.50
2023-01-09T09:19:43.143Z,5.30
2023-01-09T09:22:10.494Z,5.20
2023-01-09T09:24:37.987Z,5.30
2023-01-09T09:27:05.534Z,5.20
2023-01-09T09:29:32.992Z,5.40
2023-01-09T09:32:01.169Z,6.40
2023-01-09T09:34:28.584Z,7.60
2023-01-09T09:36:58.666Z,7.50
2023-01-09T09:39:26.117Z,7.20
2023-01-09T09:42:31.067Z,6.70
2023-01-09T09:45:13.826Z,6.40
2023-01-09T09:47:56.737Z,6.20
2023-01-09T09:50:27.892Z,6.10
2023-01-09T09:53:09.995Z,6.10
2023-01-09T09:55:40.210Z,5.90
2023-01-09T09:58:17.745Z,5.80
2023-01-09T10:00:49.350Z,5.60
2023-01-09T10:03:33.426Z,5.60
2023-01-09T10:06:04.444Z,5.60
2023-01-09T10:08:41.314Z,5.30
2023-01-09T10:11:15.982Z,5.30
2023-01-09T10:14:04.228Z,5.40
2023-01-09T10:16:33.155Z,5.50
2023-01-09T10:19:03.642Z,5.70
2023-01-09T10:21:46.916Z,5.80
2023-01-09T10:24:40.638Z,5.80
2023-01-09T10:27:27.720Z,5.70
2023-01-09T10:30:01.831Z,5.60
2023-01-09T10:32:29.294Z,5.60
2023-01-09T10:35:05.725Z,5.60
2023-01-09T10:38:02.826Z,5.70
2023-01-09T10:40:37.098Z,5.70
2023-01-09T10:43:13.395Z,5.70
2023-01-09T10:45:43.397Z,5.80
2023-01-09T10:48:34.108Z,5.90
2023-01-09T10:51:01.118Z,5.90
2023-01-09T10:53:30.283Z,5.70
2023-01-09T10:56:17.522Z,5.70
2023-01-09T10:58:44.977Z,5.70
2023-01-09T11:01:12.519Z,5.70
2023-01-09T11:03:40.203Z,5.80
2023-01-09T11:06:18.667Z,5.80
2023-01-09T11:08:47.142Z,5.80
2023-01-09T11:11:30.867Z,5.70
2023-01-09T11:14:05.980Z,5.60
2023-01-09T11:16:33.502Z,5.40
2023-01-09T11:19:01.233Z,5.50
2023-01-09T11:21:31.521Z,5.40
2023-01-09T11:24:18.139Z,5.40
2023-01-09T11:26:46.347Z,5.60
2023-01-09T11:29:15.516Z,5.70
2023-01-09T11:31:50.833Z,5.80
2023-01-09T11:34:19.628Z,5.90
2023-01-09T11:36:47.180Z,5.90
2023-01-09T11:39:25.656Z,5.80
2023-01-09T11:41:54.113Z,5.80
2023-01-09T11:44:25.231Z,5.80
2023-01-09T11:46:52.895Z,5.80
2023-01-09T11:49:22.957Z,5.80
2023-01-09T11:52:09.372Z,5.70
2023-01-09T11:54:38.624Z,5.70
2023-01-09T11:57:06.197Z,5.70
2023-01-09T11:59:34.051Z,5.60
2023-01-09T12:02:04.376Z,5.60
2023-01-09T12:04:38.451Z,5.30
2023-01-09T12:07:16.103Z,5.30
2023-01-09T12:10:02.271Z,5.30
2023-01-09T12:12:35.723Z,5.10
2023-01-09T12:15:03.454Z,5.20
2023-01-09T12:17:54.396Z,5.30
2023-01-09T12:20:44.719Z,5.40
2023-01-09T12:23:18.509Z,5.20
2023-01-09T12:26:12.413Z,5.40
2023-01-09T12:28:57.863Z,5.50
2023-01-09T12:31:28.357Z,5.70
2023-01-09T12:33:56.011Z,5.80
2023-01-09T12:36:47.941Z,5.80
2023-01-09T12:39:18.412Z,5.90
2023-01-09T12:41:52.249Z,5.90
2023-01-09T12:44:35.039Z,5.80
2023-01-09T12:47:22.909Z,5.80
2023-01-09T12:49:50.284Z,5.90
2023-01-09T12:52:23.707Z,5.80
2023-01-09T12:54:56.641Z,5.60
2023-01-09T12:57:32.188Z,5.50
2023-01-09T13:00:02.740Z,5.60
2023-01-09T13:02:32.820Z,5.70
2023-01-09T13:05:22.223Z,5.70
2023-01-09T13:08:08.567Z,5.70
2023-01-09T13:10:46.543Z,5.80
2023-01-09T13:13:25.541Z,5.70
2023-01-09T13:15:58.584Z,5.70
2023-01-09T13:18:46.511Z,5.80
2023-01-09T13:21:14.624Z,5.90
2023-01-09T13:23:45.049Z,6.00
2023-01-09T13:26:19.061Z,6.00
2023-01-09T13:29:10.459Z,5.90
2023-01-09T13:31:44.055Z,5.90
2023-01-09T13:34:22.599Z,5.90
2023-01-09T13:36:55.136Z,6.00
2023-01-09T13:39:24.231Z,6.10
2023-01-09T13:42:14.395Z,6.10
2023-01-09T13:44:43.683Z,5.90
2023-01-09T13:47:29.237Z,5.80
2023-01-09T13:49:56.167Z,5.90
2023-01-09T13:52:31.602Z,5.90
2023-01-09T13:54:58.851Z,5.90
2023-01-09T13:57:31.027Z,6.00
2023-01-09T14:00:18.586Z,6.00
2023-01-09T14:02:50.414Z,6.10
2023-01-09T14:05:23.881Z,6.10
2023-01-09T14:07:52.281Z,6.00
2023-01-09T14:10:23.541Z,6.00
2023-01-09T14:12:52.085Z,6.00
2023-01-09T14:15:26.660Z,6.00
2023-01-09T14:18:06.021Z,5.90
2023-01-09T14:20:36.913Z,5.90
2023-01-09T14:23:28.086Z,5.90
2023-01-09T14:25:53.342Z,5.90
2023-01-09T14:28:29.765Z,5.90
2023-01-09T14:30:57.381Z,5.80
2023-01-09T14:33:30.144Z,5.80
2023-01-09T14:36:03.495Z,5.70
2023-01-09T14:38:48.257Z,5.60
2023-01-09T14:41:15.742Z,5.50
2023-01-09T14:43:49.736Z,5.30
2023-01-09T14:46:18.675Z,5.30
2023-01-09T14:49:07.423Z,5.30
2023-01-09T14:51:37.657Z,5.20
2023-01-09T14:54:10.496Z,5.20
2023-01-09T14:56:45.394Z,5.20
2023-01-09T14:59:15.729Z,5.20
2023-01-09T15:01:45.803Z,5.10
2023-01-09T15:04:35.145Z,5.10
2023-01-09T15:07:03.665Z,5.00
2023-01-09T15:09:46.786Z,5.00
2023-01-09T15:12:17.750Z,5.10
2023-01-09T15:14:52.258Z,5.10
2023-01-09T15:17:24.899Z,5.10
2023-01-09T15:19:52.434Z,5.00
2023-01-09T15:22:25.997Z,4.90
2023-01-09T15:24:53.531Z,4.90
2023-01-09T15:27:24.087Z,4.90
2023-01-09T15:29:52.343Z,5.00
2023-01-09T15:32:29.989Z,5.10
2023-01-09T15:34:57.972Z,5.10
2023-01-09T15:37:38.593Z,5.00
2023-01-09T15:40:08.597Z,5.00
2023-01-09T15:42:58.444Z,5.10
2023-01-09T15:45:29.014Z,5.00
2023-01-09T15:48:14.668Z,5.00
2023-01-09T15:50:42.210Z,4.80
2023-01-09T15:53:13.827Z,4.70
2023-01-09T15:55:42.795Z,4.60
2023-01-09T15:58:30.059Z,4.50
2023-01-09T16:00:59.555Z,4.40
2023-01-09T16:03:27.321Z,4.30
2023-01-09T16:05:58.374Z,4.40
2023-01-09T16:08:27.364Z,4.50
2023-01-09T16:10:56.638Z,4.40
2023-01-09T16:13:25.942Z,4.40
2023-01-09T16:15:53.242Z,4.40
2023-01-09T16:18:23.557Z,4.40
2023-01-09T16:21:01.017Z,4.50
2023-01-09T16:23:35.606Z,4.60
2023-01-09T16:26:13.018Z,4.70
2023-01-09T16:28:43.936Z,4.50
2023-01-09T16:31:14.440Z,4.50
2023-01-09T16:33:46.699Z,4.40
2023-01-09T16:36:14.073Z,4.30
2023-01-09T16:38:44.941Z,4.40
2023-01-09T16:41:39.920Z,4.40
2023-01-09T16:44:11.998Z,4.50
2023-01-09T16:46:44.099Z,4.40
2023-01-09T16:49:18.154Z,4.40
2023-01-09T16:51:46.049Z,4.50
2023-01-09T16:54:13.754Z,4.50
2023-01-09T16:56:41.413Z,4.50
2023-01-09T16:59:15.934Z,4.50
2023-01-09T17:01:44.053Z,4.50
2023-01-09T17:04:12.231Z,4.60
2023-01-09T17:06:43.546Z,4.60
2023-01-09T17:09:15.087Z,4.70
2023-01-09T17:11:42.350Z,4.70
2023-01-09T17:14:11.320Z,4.70
2023-01-09T17:16:38.558Z,4.70
2023-01-09T17:19:19.522Z,4.70
2023-01-09T17:21:46.959Z,4.80
2023-01-09T17:24:33.365Z,4.80
2023-01-09T17:27:20.094Z,4.70
2023-01-09T17:29:50.563Z,4.60
2023-01-09T17:32:18.308Z,4.60
2023-01-09T17:34:45.423Z,4.50
2023-01-09T17:37:16.326Z,4.50
2023-01-09T17:39:43.951Z,4.50
2023-01-09T17:42:11.382Z,4.50
2023-01-09T17:44:38.754Z,4.50
2023-01-09T17:47:07.247Z,4.50
2023-01-09T17:49:34.301Z,4.50
2023-01-09T17:52:01.614Z,4.50
2023-01-09T17:54:28.762Z,4.50
2023-01-09T17:56:56.408Z,4.50
2023-01-09T17:59:24.776Z,4.50
2023-01-09T18:01:52.503Z,4.50
2023-01-09T18:04:19.829Z,4.50
2023-01-09T18:06:48.696Z,4.50
2023-01-09T18:09:17.533Z,4.40
2023-01-09T18:11:45.211Z,4.40
2023-01-09T18:14:13.811Z,4.40
2023-01-09T18:16:41.706Z,4.30
2023-01-09T18:19:09.552Z,4.20
2023-01-09T18:21:37.253Z,4.20
2023-01-09T18:24:04.983Z,4.00
2023-01-09T18:26:38.382Z,3.90
2023-01-09T18:29:05.650Z,3.80
2023-01-09T18:31:40.051Z,3.70
2023-01-09T18:34:08.039Z,3.70
2023-01-09T18:36:43.521Z,3.80
2023-01-09T18:39:12.059Z,3.80
2023-01-09T18:41:42.035Z,3.80
2023-01-09T18:44:09.166Z,3.70
2023-01-09T18:46:38.133Z,3.70
2023-01-09T18:49:05.911Z,3.80
2023-01-09T18:51:34.649Z,3.80
2023-01-09T18:54:02.581Z,3.90
2023-01-09T18:56:29.629Z,4.10
2023-01-09T18:58:59.965Z,4.20
2023-01-09T19:01:27.610Z,4.20
2023-01-09T19:03:55.822Z,4.10
2023-01-09T19:06:23.391Z,4.10
2023-01-09T19:08:52.109Z,4.20
2023-01-09T19:11:19.015Z,4.30
2023-01-09T19:13:46.936Z,4.30
2023-01-09T19:16:14.079Z,4.30
2023-01-09T19:18:42.009Z,4.30
2023-01-09T19:21:20.206Z,4.30
2023-01-09T19:23:47.169Z,4.30
2023-01-09T19:26:20.379Z,4.30
2023-01-09T19:28:47.580Z,4.40
2023-01-09T19:31:14.670Z,4.30
2023-01-09T19:33:41.813Z,4.40
2023-01-09T19:36:08.976Z,4.40
2023-01-09T19:38:35.866Z,4.30
2023-01-09T19:41:11.152Z,4.30
2023-01-09T19:43:40.437Z,4.30
2023-01-09T19:46:09.183Z,4.30
2023-01-09T19:48:36.505Z,4.20
2023-01-09T19:51:04.445Z,4.30
2023-01-09T19:53:32.294Z,4.30
2023-01-09T19:56:11.667Z,4.30
2023-01-09T19:58:38.772Z,4.30
2023-01-09T20:01:15.745Z,4.40
2023-01-09T20:03:44.287Z,4.30
2023-01-09T20:06:14.370Z,4.30
2023-01-09T20:08:42.692Z,4.30
2023-01-09T20:13:56.220Z,4.40
2023-01-09T20:20:02.877Z,4.30
2023-01-09T20:23:05.094Z,4.20
2023-01-09T20:25:32.617Z,4.10
2023-01-09T20:27:59.954Z,4.10
2023-01-09T20:30:27.458Z,4.10
2023-01-09T20:35:54.308Z,3.80
2023-01-09T20:41:42.006Z,4.00
2023-01-09T20:44:45.219Z,4.00
2023-01-09T20:47:27.141Z,4.10
2023-01-09T20:49:58.355Z,4.00
2023-01-09T20:52:29.613Z,4.00
2023-01-09T20:55:02.361Z,4.00
2023-01-09T20:57:30.039Z,4.00
2023-01-09T21:00:00.157Z,4.00
2023-01-09T21:02:34.337Z,4.00
2023-01-09T21:05:10.485Z,3.80
2023-01-09T21:07:47.024Z,3.40
2023-01-09T21:10:39.443Z,3.20
2023-01-09T21:13:25.384Z,3.20
2023-01-09T21:17:01.867Z,3.20
2023-01-09T21:22:25.551Z,3.30
2023-01-09T21:25:04.666Z,3.40
2023-01-09T21:30:26.275Z,3.50
2023-01-09T21:32:53.880Z,3.40
2023-01-09T21:35:27.175Z,3.40
2023-01-09T21:37:59.296Z,3.40
2023-01-09T21:40:32.213Z,3.30
2023-01-09T21:43:18.299Z,3.40
2023-01-09T21:46:20.799Z,3.40
2023-01-09T21:49:08.424Z,3.50
2023-01-09T21:51:39.236Z,3.70
2023-01-09T21:54:06.730Z,3.80
2023-01-09T21:56:34.285Z,3.80
2023-01-09T21:59:01.775Z,3.80
2023-01-09T22:01:29.283Z,3.90
2023-01-09T22:03:57.205Z,3.90
2023-01-09T22:06:24.683Z,3.80
2023-01-09T22:08:52.902Z,3.80
2023-01-09T22:11:20.317Z,3.70
2023-01-09T22:13:48.430Z,3.70
2023-01-09T22:16:16.053Z,3.70
2023-01-09T22:18:43.587Z,3.70
2023-01-09T22:21:12.894Z,3.70
2023-01-09T22:23:40.404Z,3.70
2023-01-09T22:26:11.507Z,3.50
2023-01-09T22:28:40.489Z,3.40
2023-01-09T22:31:09.472Z,3.50
2023-01-09T22:33:37.009Z,3.50
2023-01-09T22:36:05.732Z,3.60
2023-01-09T22:38:33.146Z,3.70
2023-01-09T22:41:00.719Z,3.80
2023-01-09T22:43:28.830Z,3.80
2023-01-09T22:46:00.363Z,3.70
2023-01-09T22:48:29.237Z,3.70
2023-01-09T22:51:00.908Z,3.70
2023-01-09T22:53:28.882Z,3.60
2023-01-09T22:55:59.726Z,3.50
2023-01-09T22:58:27.973Z,3.40
2023-01-09T23:00:55.937Z,3.40
2023-01-09T23:03:23.431Z,3.30
2023-01-09T23:05:59.793Z,3.40
2023-01-09T23:08:27.147Z,3.40
2023-01-09T23:10:54.699Z,3.30
2023-01-09T23:13:22.230Z,3.30
2023-01-09T23:15:49.879Z,3.30
2023-01-09T23:18:20.486Z,3.20
2023-01-09T23:20:55.390Z,3.30
2023-01-09T23:23:26.534Z,3.20
2023-01-09T23:25:58.809Z,3.20
2023-01-09T23:28:26.581Z,3.20
2023-01-09T23:30:53.942Z,3.20
2023-01-09T23:33:21.526Z,3.20
2023-01-09T23:35:49.147Z,3.20
2023-01-09T23:38:16.675Z,3.20
2023-01-09T23:40:44.207Z,3.20
2023-01-09T23:43:11.981Z,3.30
2023-01-09T23:45:43.939Z,3.40
2023-01-09T23:48:13.328Z,3.40
2023-01-09T23:50:45.160Z,3.30
2023-01-09T23:53:12.721Z,3.30
2023-01-09T23:55:41.365Z,3.30
2023-01-09T23:58:08.889Z,3.20
